sensor_id;sensor_type;location;lat;lon;timestamp;P1;durP1;ratioP1;P2;durP2;ratioP2
4278;SDS011;2153;47.744;10.580;2024-03-02T00:00:40;24.07;;;11.03;;
4278;SDS011;2153;47.744;10.580;2024-03-02T00:03:07;24.83;;;11.00;;
4278;SDS011;2153;47.744;10.580;2024-03-02T00:05:35;25.43;;;10.80;;
4278;SDS011;2153;47.744;10.580;2024-03-02T00:08:03;31.20;;;14.70;;
4278;SDS011;2153;47.744;10.580;2024-03-02T00:10:33;26.87;;;11.63;;
4278;SDS011;2153;47.744;10.580;2024-03-02T00:13:03;24.00;;;10.50;;
4278;SDS011;2153;47.744;10.580;2024-03-02T00:15:40;26.07;;;11.50;;
4278;SDS011;2153;47.744;10.580;2024-03-02T00:18:10;24.50;;;11.17;;
4278;SDS011;2153;47.744;10.580;2024-03-02T00:20:37;25.10;;;10.53;;
4278;SDS011;2153;47.744;10.580;2024-03-02T00:23:06;24.43;;;10.37;;
4278;SDS011;2153;47.744;10.580;2024-03-02T00:25:37;23.30;;;9.70;;
4278;SDS011;2153;47.744;10.580;2024-03-02T00:28:05;20.43;;;9.33;;
4278;SDS011;2153;47.744;10.580;2024-03-02T00:30:45;23.23;;;10.00;;
4278;SDS011;2153;47.744;10.580;2024-03-02T00:33:18;21.40;;;9.40;;
4278;SDS011;2153;47.744;10.580;2024-03-02T00:35:45;21.13;;;9.03;;
4278;SDS011;2153;47.744;10.580;2024-03-02T00:38:12;22.67;;;9.57;;
4278;SDS011;2153;47.744;10.580;2024-03-02T00:40:40;22.23;;;9.10;;
4278;SDS011;2153;47.744;10.580;2024-03-02T00:43:09;19.70;;;8.90;;
4278;SDS011;2153;47.744;10.580;2024-03-02T00:45:39;21.80;;;9.17;;
4278;SDS011;2153;47.744;10.580;2024-03-02T00:48:06;20.30;;;9.17;;
4278;SDS011;2153;47.744;10.580;2024-03-02T00:50:36;19.27;;;8.20;;
4278;SDS011;2153;47.744;10.580;2024-03-02T00:53:03;17.70;;;7.30;;
4278;SDS011;2153;47.744;10.580;2024-03-02T00:55:30;16.43;;;7.30;;
4278;SDS011;2153;47.744;10.580;2024-03-02T00:57:57;18.10;;;7.50;;
4278;SDS011;2153;47.744;10.580;2024-03-02T01:00:24;17.20;;;7.40;;
4278;SDS011;2153;47.744;10.580;2024-03-02T01:02:52;18.80;;;7.67;;
4278;SDS011;2153;47.744;10.580;2024-03-02T01:05:19;18.80;;;8.10;;
4278;SDS011;2153;47.744;10.580;2024-03-02T01:07:48;16.70;;;7.20;;
4278;SDS011;2153;47.744;10.580;2024-03-02T01:10:15;15.87;;;7.00;;
4278;SDS011;2153;47.744;10.580;2024-03-02T01:12:42;18.20;;;7.57;;
4278;SDS011;2153;47.744;10.580;2024-03-02T01:15:09;16.60;;;6.70;;
4278;SDS011;2153;47.744;10.580;2024-03-02T01:17:36;16.73;;;7.40;;
4278;SDS011;2153;47.744;10.580;2024-03-02T01:20:03;17.43;;;6.97;;
4278;SDS011;2153;47.744;10.580;2024-03-02T01:22:30;26.60;;;11.83;;
4278;SDS011;2153;47.744;10.580;2024-03-02T01:24:59;24.80;;;11.87;;
4278;SDS011;2153;47.744;10.580;2024-03-02T01:27:26;20.30;;;9.03;;
4278;SDS011;2153;47.744;10.580;2024-03-02T01:29:53;16.70;;;7.00;;
4278;SDS011;2153;47.744;10.580;2024-03-02T01:32:20;20.57;;;8.70;;
4278;SDS011;2153;47.744;10.580;2024-03-02T01:34:46;19.30;;;8.27;;
4278;SDS011;2153;47.744;10.580;2024-03-02T01:37:13;18.87;;;8.03;;
4278;SDS011;2153;47.744;10.580;2024-03-02T01:39:40;20.60;;;9.10;;
4278;SDS011;2153;47.744;10.580;2024-03-02T01:42:09;20.30;;;9.00;;
4278;SDS011;2153;47.744;10.580;2024-03-02T01:44:36;20.40;;;9.10;;
4278;SDS011;2153;47.744;10.580;2024-03-02T01:47:03;22.90;;;9.87;;
4278;SDS011;2153;47.744;10.580;2024-03-02T01:49:30;19.80;;;8.03;;
4278;SDS011;2153;47.744;10.580;2024-03-02T01:51:59;21.27;;;8.03;;
4278;SDS011;2153;47.744;10.580;2024-03-02T01:54:26;16.10;;;7.37;;
4278;SDS011;2153;47.744;10.580;2024-03-02T01:56:53;19.07;;;7.70;;
4278;SDS011;2153;47.744;10.580;2024-03-02T01:59:21;19.43;;;8.87;;
4278;SDS011;2153;47.744;10.580;2024-03-02T02:01:48;19.50;;;8.37;;
4278;SDS011;2153;47.744;10.580;2024-03-02T02:04:15;19.83;;;8.50;;
4278;SDS011;2153;47.744;10.580;2024-03-02T02:06:42;19.50;;;8.00;;
4278;SDS011;2153;47.744;10.580;2024-03-02T02:09:10;18.10;;;7.67;;
4278;SDS011;2153;47.744;10.580;2024-03-02T02:11:37;19.10;;;7.30;;
4278;SDS011;2153;47.744;10.580;2024-03-02T02:14:06;19.77;;;8.47;;
4278;SDS011;2153;47.744;10.580;2024-03-02T02:16:34;18.57;;;7.47;;
4278;SDS011;2153;47.744;10.580;2024-03-02T02:19:01;19.23;;;8.50;;
4278;SDS011;2153;47.744;10.580;2024-03-02T02:21:29;19.93;;;8.63;;
4278;SDS011;2153;47.744;10.580;2024-03-02T02:23:56;21.20;;;9.67;;
4278;SDS011;2153;47.744;10.580;2024-03-02T02:26:23;18.30;;;8.07;;
4278;SDS011;2153;47.744;10.580;2024-03-02T02:28:50;18.33;;;8.00;;
4278;SDS011;2153;47.744;10.580;2024-03-02T02:31:17;21.00;;;8.70;;
4278;SDS011;2153;47.744;10.580;2024-03-02T02:33:44;19.53;;;8.50;;
4278;SDS011;2153;47.744;10.580;2024-03-02T02:36:11;19.10;;;8.50;;
4278;SDS011;2153;47.744;10.580;2024-03-02T02:38:41;19.50;;;8.60;;
4278;SDS011;2153;47.744;10.580;2024-03-02T02:41:09;18.90;;;8.43;;
4278;SDS011;2153;47.744;10.580;2024-03-02T02:43:36;16.60;;;7.27;;
4278;SDS011;2153;47.744;10.580;2024-03-02T02:46:04;20.27;;;8.80;;
4278;SDS011;2153;47.744;10.580;2024-03-02T02:48:31;19.53;;;8.87;;
4278;SDS011;2153;47.744;10.580;2024-03-02T02:50:58;22.97;;;10.23;;
4278;SDS011;2153;47.744;10.580;2024-03-02T02:53:25;17.80;;;7.27;;
4278;SDS011;2153;47.744;10.580;2024-03-02T02:55:54;20.37;;;8.07;;
4278;SDS011;2153;47.744;10.580;2024-03-02T02:58:21;17.37;;;7.63;;
4278;SDS011;2153;47.744;10.580;2024-03-02T03:00:48;18.70;;;7.70;;
4278;SDS011;2153;47.744;10.580;2024-03-02T03:03:15;17.80;;;8.07;;
4278;SDS011;2153;47.744;10.580;2024-03-02T03:05:42;19.37;;;8.97;;
4278;SDS011;2153;47.744;10.580;2024-03-02T03:08:09;17.63;;;7.17;;
4278;SDS011;2153;47.744;10.580;2024-03-02T03:10:36;18.90;;;8.20;;
4278;SDS011;2153;47.744;10.580;2024-03-02T03:13:04;18.90;;;8.23;;
4278;SDS011;2153;47.744;10.580;2024-03-02T03:15:33;21.47;;;9.63;;
4278;SDS011;2153;47.744;10.580;2024-03-02T03:18:01;18.87;;;8.90;;
4278;SDS011;2153;47.744;10.580;2024-03-02T03:20:29;19.00;;;8.60;;
4278;SDS011;2153;47.744;10.580;2024-03-02T03:22:56;19.97;;;8.20;;
4278;SDS011;2153;47.744;10.580;2024-03-02T03:25:23;20.80;;;8.30;;
4278;SDS011;2153;47.744;10.580;2024-03-02T03:27:50;22.00;;;9.10;;
4278;SDS011;2153;47.744;10.580;2024-03-02T03:30:19;17.80;;;7.77;;
4278;SDS011;2153;47.744;10.580;2024-03-02T03:32:46;17.50;;;7.50;;
4278;SDS011;2153;47.744;10.580;2024-03-02T03:35:14;18.07;;;8.00;;
4278;SDS011;2153;47.744;10.580;2024-03-02T03:37:41;20.73;;;9.50;;
4278;SDS011;2153;47.744;10.580;2024-03-02T03:40:08;20.23;;;8.77;;
4278;SDS011;2153;47.744;10.580;2024-03-02T03:42:35;18.17;;;7.70;;
4278;SDS011;2153;47.744;10.580;2024-03-02T03:45:04;19.33;;;8.33;;
4278;SDS011;2153;47.744;10.580;2024-03-02T03:47:33;18.17;;;7.77;;
4278;SDS011;2153;47.744;10.580;2024-03-02T03:50:00;19.87;;;8.20;;
4278;SDS011;2153;47.744;10.580;2024-03-02T03:52:32;17.47;;;7.83;;
4278;SDS011;2153;47.744;10.580;2024-03-02T03:54:59;17.93;;;8.10;;
4278;SDS011;2153;47.744;10.580;2024-03-02T03:57:26;19.00;;;8.30;;
4278;SDS011;2153;47.744;10.580;2024-03-02T03:59:53;17.83;;;8.03;;
4278;SDS011;2153;47.744;10.580;2024-03-02T04:02:20;21.70;;;7.47;;
4278;SDS011;2153;47.744;10.580;2024-03-02T04:04:48;17.97;;;7.77;;
4278;SDS011;2153;47.744;10.580;2024-03-02T04:07:15;18.80;;;8.47;;
4278;SDS011;2153;47.744;10.580;2024-03-02T04:09:42;18.17;;;7.80;;
4278;SDS011;2153;47.744;10.580;2024-03-02T04:12:09;18.17;;;8.20;;
4278;SDS011;2153;47.744;10.580;2024-03-02T04:14:38;19.27;;;8.00;;
4278;SDS011;2153;47.744;10.580;2024-03-02T04:17:07;21.17;;;8.70;;
4278;SDS011;2153;47.744;10.580;2024-03-02T04:19:35;16.90;;;7.03;;
4278;SDS011;2153;47.744;10.580;2024-03-02T04:22:03;19.60;;;8.87;;
4278;SDS011;2153;47.744;10.580;2024-03-02T04:24:30;16.63;;;6.37;;
4278;SDS011;2153;47.744;10.580;2024-03-02T04:26:58;18.70;;;8.50;;
4278;SDS011;2153;47.744;10.580;2024-03-02T04:29:25;18.30;;;7.20;;
4278;SDS011;2153;47.744;10.580;2024-03-02T04:31:52;17.60;;;7.97;;
4278;SDS011;2153;47.744;10.580;2024-03-02T04:34:19;17.90;;;7.17;;
4278;SDS011;2153;47.744;10.580;2024-03-02T04:36:46;20.77;;;8.43;;
4278;SDS011;2153;47.744;10.580;2024-03-02T04:39:14;16.57;;;7.70;;
4278;SDS011;2153;47.744;10.580;2024-03-02T04:41:41;17.73;;;7.93;;
4278;SDS011;2153;47.744;10.580;2024-03-02T04:44:08;18.03;;;7.10;;
4278;SDS011;2153;47.744;10.580;2024-03-02T04:46:35;19.80;;;8.10;;
4278;SDS011;2153;47.744;10.580;2024-03-02T04:49:02;17.10;;;7.70;;
4278;SDS011;2153;47.744;10.580;2024-03-02T04:51:29;18.63;;;7.70;;
4278;SDS011;2153;47.744;10.580;2024-03-02T04:53:56;18.00;;;7.23;;
4278;SDS011;2153;47.744;10.580;2024-03-02T04:56:25;18.90;;;7.77;;
4278;SDS011;2153;47.744;10.580;2024-03-02T04:59:06;17.90;;;7.80;;
4278;SDS011;2153;47.744;10.580;2024-03-02T05:01:33;19.37;;;8.83;;
4278;SDS011;2153;47.744;10.580;2024-03-02T05:04:00;18.83;;;8.20;;
4278;SDS011;2153;47.744;10.580;2024-03-02T05:06:27;18.97;;;8.00;;
4278;SDS011;2153;47.744;10.580;2024-03-02T05:08:54;19.97;;;8.00;;
4278;SDS011;2153;47.744;10.580;2024-03-02T05:11:22;18.93;;;8.10;;
4278;SDS011;2153;47.744;10.580;2024-03-02T05:14:15;16.60;;;6.63;;
4278;SDS011;2153;47.744;10.580;2024-03-02T05:16:41;19.23;;;8.07;;
4278;SDS011;2153;47.744;10.580;2024-03-02T05:19:08;21.20;;;7.60;;
4278;SDS011;2153;47.744;10.580;2024-03-02T05:21:35;18.40;;;7.20;;
4278;SDS011;2153;47.744;10.580;2024-03-02T05:24:02;20.13;;;8.10;;
4278;SDS011;2153;47.744;10.580;2024-03-02T05:26:29;20.33;;;8.30;;
4278;SDS011;2153;47.744;10.580;2024-03-02T05:28:56;18.57;;;7.57;;
4278;SDS011;2153;47.744;10.580;2024-03-02T05:31:25;16.77;;;7.23;;
4278;SDS011;2153;47.744;10.580;2024-03-02T05:33:52;17.30;;;7.50;;
4278;SDS011;2153;47.744;10.580;2024-03-02T05:36:19;17.80;;;7.40;;
4278;SDS011;2153;47.744;10.580;2024-03-02T05:38:46;17.77;;;7.33;;
4278;SDS011;2153;47.744;10.580;2024-03-02T05:41:13;19.47;;;8.13;;
4278;SDS011;2153;47.744;10.580;2024-03-02T05:43:40;18.43;;;7.70;;
4278;SDS011;2153;47.744;10.580;2024-03-02T05:46:07;18.60;;;8.00;;
4278;SDS011;2153;47.744;10.580;2024-03-02T05:48:36;19.40;;;8.30;;
4278;SDS011;2153;47.744;10.580;2024-03-02T05:51:03;20.97;;;8.30;;
4278;SDS011;2153;47.744;10.580;2024-03-02T05:53:30;19.87;;;7.80;;
4278;SDS011;2153;47.744;10.580;2024-03-02T05:55:57;21.70;;;8.27;;
4278;SDS011;2153;47.744;10.580;2024-03-02T05:58:24;21.13;;;8.10;;
4278;SDS011;2153;47.744;10.580;2024-03-02T06:01:03;18.90;;;8.20;;
4278;SDS011;2153;47.744;10.580;2024-03-02T06:03:30;20.07;;;8.03;;
4278;SDS011;2153;47.744;10.580;2024-03-02T06:05:59;22.40;;;7.40;;
4278;SDS011;2153;47.744;10.580;2024-03-02T06:08:26;21.40;;;7.90;;
4278;SDS011;2153;47.744;10.580;2024-03-02T06:10:53;19.60;;;8.57;;
4278;SDS011;2153;47.744;10.580;2024-03-02T06:13:21;17.60;;;7.07;;
4278;SDS011;2153;47.744;10.580;2024-03-02T06:15:48;19.43;;;7.50;;
4278;SDS011;2153;47.744;10.580;2024-03-02T06:18:15;20.20;;;8.10;;
4278;SDS011;2153;47.744;10.580;2024-03-02T06:20:42;16.47;;;6.43;;
4278;SDS011;2153;47.744;10.580;2024-03-02T06:23:10;15.93;;;6.23;;
4278;SDS011;2153;47.744;10.580;2024-03-02T06:25:37;18.10;;;6.73;;
4278;SDS011;2153;47.744;10.580;2024-03-02T06:28:04;17.13;;;6.50;;
4278;SDS011;2153;47.744;10.580;2024-03-02T06:30:32;16.27;;;6.43;;
4278;SDS011;2153;47.744;10.580;2024-03-02T06:32:59;19.37;;;7.60;;
4278;SDS011;2153;47.744;10.580;2024-03-02T06:35:26;20.70;;;7.73;;
4278;SDS011;2153;47.744;10.580;2024-03-02T06:37:53;16.90;;;6.60;;
4278;SDS011;2153;47.744;10.580;2024-03-02T06:40:21;20.87;;;6.77;;
4278;SDS011;2153;47.744;10.580;2024-03-02T06:42:48;19.77;;;6.40;;
4278;SDS011;2153;47.744;10.580;2024-03-02T06:45:15;18.97;;;7.80;;
4278;SDS011;2153;47.744;10.580;2024-03-02T06:47:42;21.37;;;7.40;;
4278;SDS011;2153;47.744;10.580;2024-03-02T06:50:09;19.03;;;7.60;;
4278;SDS011;2153;47.744;10.580;2024-03-02T06:52:36;18.10;;;7.70;;
4278;SDS011;2153;47.744;10.580;2024-03-02T06:55:04;17.10;;;7.00;;
4278;SDS011;2153;47.744;10.580;2024-03-02T06:57:32;18.10;;;7.10;;
4278;SDS011;2153;47.744;10.580;2024-03-02T06:59:59;27.70;;;7.17;;
4278;SDS011;2153;47.744;10.580;2024-03-02T07:02:30;23.67;;;6.60;;
4278;SDS011;2153;47.744;10.580;2024-03-02T07:04:57;18.00;;;6.50;;
4278;SDS011;2153;47.744;10.580;2024-03-02T07:07:24;16.40;;;6.80;;
4278;SDS011;2153;47.744;10.580;2024-03-02T07:09:51;17.53;;;7.20;;
4278;SDS011;2153;47.744;10.580;2024-03-02T07:12:18;18.60;;;6.50;;
4278;SDS011;2153;47.744;10.580;2024-03-02T07:14:46;18.67;;;6.47;;
4278;SDS011;2153;47.744;10.580;2024-03-02T07:17:31;14.70;;;5.00;;
4278;SDS011;2153;47.744;10.580;2024-03-02T07:19:58;15.40;;;5.30;;
4278;SDS011;2153;47.744;10.580;2024-03-02T07:22:25;14.53;;;5.10;;
4278;SDS011;2153;47.744;10.580;2024-03-02T07:24:52;17.43;;;5.57;;
4278;SDS011;2153;47.744;10.580;2024-03-02T07:27:19;13.73;;;4.70;;
4278;SDS011;2153;47.744;10.580;2024-03-02T07:29:47;13.43;;;4.20;;
4278;SDS011;2153;47.744;10.580;2024-03-02T07:32:14;13.23;;;3.93;;
4278;SDS011;2153;47.744;10.580;2024-03-02T07:34:41;13.50;;;3.83;;
4278;SDS011;2153;47.744;10.580;2024-03-02T07:37:08;15.80;;;4.00;;
4278;SDS011;2153;47.744;10.580;2024-03-02T07:39:35;14.87;;;4.33;;
4278;SDS011;2153;47.744;10.580;2024-03-02T07:42:02;13.50;;;3.97;;
4278;SDS011;2153;47.744;10.580;2024-03-02T07:44:29;14.60;;;4.20;;
4278;SDS011;2153;47.744;10.580;2024-03-02T07:46:58;15.10;;;4.10;;
4278;SDS011;2153;47.744;10.580;2024-03-02T07:49:25;16.53;;;4.60;;
4278;SDS011;2153;47.744;10.580;2024-03-02T07:51:52;19.40;;;5.27;;
4278;SDS011;2153;47.744;10.580;2024-03-02T07:54:19;19.77;;;5.30;;
4278;SDS011;2153;47.744;10.580;2024-03-02T07:56:46;14.83;;;3.97;;
4278;SDS011;2153;47.744;10.580;2024-03-02T07:59:13;17.20;;;4.50;;
4278;SDS011;2153;47.744;10.580;2024-03-02T08:01:40;15.47;;;4.53;;
4278;SDS011;2153;47.744;10.580;2024-03-02T08:04:08;21.57;;;7.63;;
4278;SDS011;2153;47.744;10.580;2024-03-02T08:06:35;20.60;;;6.90;;
4278;SDS011;2153;47.744;10.580;2024-03-02T08:09:02;18.93;;;6.00;;
4278;SDS011;2153;47.744;10.580;2024-03-02T08:11:34;18.90;;;5.30;;
4278;SDS011;2153;47.744;10.580;2024-03-02T08:14:02;15.40;;;4.87;;
4278;SDS011;2153;47.744;10.580;2024-03-02T08:16:29;16.23;;;5.10;;
4278;SDS011;2153;47.744;10.580;2024-03-02T08:18:56;16.20;;;5.60;;
4278;SDS011;2153;47.744;10.580;2024-03-02T08:21:25;15.30;;;3.97;;
4278;SDS011;2153;47.744;10.580;2024-03-02T08:23:55;18.13;;;5.07;;
4278;SDS011;2153;47.744;10.580;2024-03-02T08:26:22;16.97;;;5.33;;
4278;SDS011;2153;47.744;10.580;2024-03-02T08:28:49;15.57;;;4.23;;
4278;SDS011;2153;47.744;10.580;2024-03-02T08:31:16;15.87;;;4.20;;
4278;SDS011;2153;47.744;10.580;2024-03-02T08:33:43;18.67;;;5.30;;
4278;SDS011;2153;47.744;10.580;2024-03-02T08:36:10;13.70;;;3.60;;
4278;SDS011;2153;47.744;10.580;2024-03-02T08:38:38;15.80;;;2.73;;
4278;SDS011;2153;47.744;10.580;2024-03-02T08:41:06;12.97;;;2.30;;
4278;SDS011;2153;47.744;10.580;2024-03-02T08:43:33;13.47;;;2.60;;
4278;SDS011;2153;47.744;10.580;2024-03-02T08:46:00;12.60;;;2.20;;
4278;SDS011;2153;47.744;10.580;2024-03-02T08:48:27;13.20;;;2.37;;
4278;SDS011;2153;47.744;10.580;2024-03-02T08:50:54;14.43;;;2.77;;
4278;SDS011;2153;47.744;10.580;2024-03-02T08:53:21;14.17;;;2.30;;
4278;SDS011;2153;47.744;10.580;2024-03-02T08:55:50;15.00;;;2.40;;
4278;SDS011;2153;47.744;10.580;2024-03-02T08:58:17;14.50;;;2.10;;
4278;SDS011;2153;47.744;10.580;2024-03-02T09:00:45;15.50;;;1.90;;
4278;SDS011;2153;47.744;10.580;2024-03-02T09:03:13;13.00;;;1.83;;
4278;SDS011;2153;47.744;10.580;2024-03-02T09:05:41;14.17;;;2.00;;
4278;SDS011;2153;47.744;10.580;2024-03-02T09:08:08;13.50;;;2.13;;
4278;SDS011;2153;47.744;10.580;2024-03-02T09:10:35;12.40;;;1.80;;
4278;SDS011;2153;47.744;10.580;2024-03-02T09:13:04;13.03;;;2.13;;
4278;SDS011;2153;47.744;10.580;2024-03-02T09:15:31;12.93;;;1.90;;
4278;SDS011;2153;47.744;10.580;2024-03-02T09:18:02;13.73;;;2.00;;
4278;SDS011;2153;47.744;10.580;2024-03-02T09:20:29;13.40;;;2.50;;
4278;SDS011;2153;47.744;10.580;2024-03-02T09:22:56;13.77;;;2.10;;
4278;SDS011;2153;47.744;10.580;2024-03-02T09:25:23;13.23;;;2.03;;
4278;SDS011;2153;47.744;10.580;2024-03-02T09:27:50;12.63;;;2.10;;
4278;SDS011;2153;47.744;10.580;2024-03-02T09:30:18;12.50;;;1.80;;
4278;SDS011;2153;47.744;10.580;2024-03-02T09:32:45;12.37;;;1.50;;
4278;SDS011;2153;47.744;10.580;2024-03-02T09:35:12;13.57;;;1.43;;
4278;SDS011;2153;47.744;10.580;2024-03-02T09:37:39;12.17;;;1.80;;
4278;SDS011;2153;47.744;10.580;2024-03-02T09:40:07;11.37;;;1.20;;
4278;SDS011;2153;47.744;10.580;2024-03-02T09:42:34;11.67;;;1.33;;
4278;SDS011;2153;47.744;10.580;2024-03-02T09:45:01;13.80;;;1.67;;
4278;SDS011;2153;47.744;10.580;2024-03-02T09:47:30;11.97;;;1.50;;
4278;SDS011;2153;47.744;10.580;2024-03-02T09:49:57;12.87;;;1.80;;
4278;SDS011;2153;47.744;10.580;2024-03-02T09:52:24;12.27;;;1.90;;
4278;SDS011;2153;47.744;10.580;2024-03-02T09:54:51;13.00;;;1.80;;
4278;SDS011;2153;47.744;10.580;2024-03-02T09:57:18;13.10;;;1.57;;
4278;SDS011;2153;47.744;10.580;2024-03-02T09:59:45;12.53;;;2.00;;
4278;SDS011;2153;47.744;10.580;2024-03-02T10:02:12;13.20;;;1.93;;
4278;SDS011;2153;47.744;10.580;2024-03-02T10:04:40;12.57;;;1.90;;
4278;SDS011;2153;47.744;10.580;2024-03-02T10:07:10;13.10;;;2.50;;
4278;SDS011;2153;47.744;10.580;2024-03-02T10:09:36;11.93;;;1.67;;
4278;SDS011;2153;47.744;10.580;2024-03-02T10:12:04;13.60;;;1.97;;
4278;SDS011;2153;47.744;10.580;2024-03-02T10:14:31;12.67;;;1.70;;
4278;SDS011;2153;47.744;10.580;2024-03-02T10:17:01;20.57;;;2.50;;
4278;SDS011;2153;47.744;10.580;2024-03-02T10:19:28;13.50;;;1.60;;
4278;SDS011;2153;47.744;10.580;2024-03-02T10:21:59;19.83;;;1.57;;
4278;SDS011;2153;47.744;10.580;2024-03-02T10:24:27;11.40;;;1.37;;
4278;SDS011;2153;47.744;10.580;2024-03-02T10:26:54;11.80;;;1.63;;
4278;SDS011;2153;47.744;10.580;2024-03-02T10:29:21;11.83;;;1.30;;
4278;SDS011;2153;47.744;10.580;2024-03-02T10:31:48;12.63;;;1.77;;
4278;SDS011;2153;47.744;10.580;2024-03-02T10:34:15;12.60;;;1.40;;
4278;SDS011;2153;47.744;10.580;2024-03-02T10:36:43;12.07;;;1.33;;
4278;SDS011;2153;47.744;10.580;2024-03-02T10:39:12;17.93;;;1.57;;
4278;SDS011;2153;47.744;10.580;2024-03-02T10:41:40;15.13;;;1.40;;
4278;SDS011;2153;47.744;10.580;2024-03-02T10:44:07;12.37;;;1.23;;
4278;SDS011;2153;47.744;10.580;2024-03-02T10:46:35;12.37;;;1.10;;
4278;SDS011;2153;47.744;10.580;2024-03-02T10:49:04;14.10;;;1.30;;
4278;SDS011;2153;47.744;10.580;2024-03-02T10:51:32;11.83;;;1.20;;
4278;SDS011;2153;47.744;10.580;2024-03-02T10:54:01;12.47;;;1.70;;
4278;SDS011;2153;47.744;10.580;2024-03-02T10:56:30;15.33;;;2.47;;
4278;SDS011;2153;47.744;10.580;2024-03-02T10:59:01;11.87;;;1.57;;
4278;SDS011;2153;47.744;10.580;2024-03-02T11:01:29;12.10;;;1.30;;
4278;SDS011;2153;47.744;10.580;2024-03-02T11:03:56;12.50;;;1.03;;
4278;SDS011;2153;47.744;10.580;2024-03-02T11:06:24;11.20;;;1.00;;
4278;SDS011;2153;47.744;10.580;2024-03-02T11:08:52;11.40;;;1.10;;
4278;SDS011;2153;47.744;10.580;2024-03-02T11:11:25;11.30;;;0.90;;
4278;SDS011;2153;47.744;10.580;2024-03-02T11:13:56;11.70;;;1.17;;
4278;SDS011;2153;47.744;10.580;2024-03-02T11:16:27;11.30;;;1.00;;
4278;SDS011;2153;47.744;10.580;2024-03-02T11:19:00;14.80;;;1.83;;
4278;SDS011;2153;47.744;10.580;2024-03-02T11:21:28;12.60;;;1.10;;
4278;SDS011;2153;47.744;10.580;2024-03-02T11:23:56;11.10;;;0.87;;
4278;SDS011;2153;47.744;10.580;2024-03-02T11:26:23;12.70;;;1.43;;
4278;SDS011;2153;47.744;10.580;2024-03-02T11:28:52;12.17;;;1.00;;
4278;SDS011;2153;47.744;10.580;2024-03-02T11:31:22;12.00;;;1.50;;
4278;SDS011;2153;47.744;10.580;2024-03-02T11:33:49;11.90;;;1.23;;
4278;SDS011;2153;47.744;10.580;2024-03-02T11:36:17;14.00;;;2.20;;
4278;SDS011;2153;47.744;10.580;2024-03-02T11:38:44;15.17;;;3.30;;
4278;SDS011;2153;47.744;10.580;2024-03-02T11:41:12;14.40;;;2.90;;
4278;SDS011;2153;47.744;10.580;2024-03-02T11:43:39;14.53;;;2.77;;
4278;SDS011;2153;47.744;10.580;2024-03-02T11:46:06;15.57;;;3.10;;
4278;SDS011;2153;47.744;10.580;2024-03-02T11:48:35;14.20;;;3.20;;
4278;SDS011;2153;47.744;10.580;2024-03-02T11:51:03;13.50;;;2.60;;
4278;SDS011;2153;47.744;10.580;2024-03-02T11:53:30;13.90;;;3.53;;
4278;SDS011;2153;47.744;10.580;2024-03-02T11:55:58;12.40;;;1.63;;
4278;SDS011;2153;47.744;10.580;2024-03-02T11:58:26;12.70;;;2.27;;
4278;SDS011;2153;47.744;10.580;2024-03-02T12:00:54;13.67;;;2.30;;
4278;SDS011;2153;47.744;10.580;2024-03-02T12:03:22;16.23;;;2.30;;
4278;SDS011;2153;47.744;10.580;2024-03-02T12:05:51;14.50;;;2.10;;
4278;SDS011;2153;47.744;10.580;2024-03-02T12:08:19;11.63;;;1.40;;
4278;SDS011;2153;47.744;10.580;2024-03-02T12:10:55;12.93;;;1.30;;
4278;SDS011;2153;47.744;10.580;2024-03-02T12:13:22;11.80;;;1.40;;
4278;SDS011;2153;47.744;10.580;2024-03-02T12:15:52;11.43;;;1.40;;
4278;SDS011;2153;47.744;10.580;2024-03-02T12:18:19;14.00;;;1.17;;
4278;SDS011;2153;47.744;10.580;2024-03-02T12:20:48;13.47;;;2.00;;
4278;SDS011;2153;47.744;10.580;2024-03-02T12:23:17;12.83;;;1.60;;
4278;SDS011;2153;47.744;10.580;2024-03-02T12:25:44;13.57;;;1.80;;
4278;SDS011;2153;47.744;10.580;2024-03-02T12:28:12;15.83;;;1.87;;
4278;SDS011;2153;47.744;10.580;2024-03-02T12:30:39;12.27;;;1.90;;
4278;SDS011;2153;47.744;10.580;2024-03-02T12:33:06;13.90;;;2.57;;
4278;SDS011;2153;47.744;10.580;2024-03-02T12:35:33;18.10;;;2.80;;
4278;SDS011;2153;47.744;10.580;2024-03-02T12:38:00;14.00;;;2.90;;
4278;SDS011;2153;47.744;10.580;2024-03-02T12:40:28;13.97;;;3.17;;
4278;SDS011;2153;47.744;10.580;2024-03-02T12:42:57;21.10;;;3.50;;
4278;SDS011;2153;47.744;10.580;2024-03-02T12:45:24;17.90;;;4.70;;
4278;SDS011;2153;47.744;10.580;2024-03-02T12:47:51;17.00;;;4.63;;
4278;SDS011;2153;47.744;10.580;2024-03-02T12:50:18;16.40;;;4.63;;
4278;SDS011;2153;47.744;10.580;2024-03-02T12:52:50;20.80;;;4.90;;
4278;SDS011;2153;47.744;10.580;2024-03-02T12:55:17;20.27;;;5.50;;
4278;SDS011;2153;47.744;10.580;2024-03-02T12:57:46;18.80;;;5.00;;
4278;SDS011;2153;47.744;10.580;2024-03-02T13:00:13;17.50;;;4.73;;
4278;SDS011;2153;47.744;10.580;2024-03-02T13:02:40;18.30;;;4.97;;
4278;SDS011;2153;47.744;10.580;2024-03-02T13:05:08;14.33;;;4.23;;
4278;SDS011;2153;47.744;10.580;2024-03-02T13:07:36;16.27;;;4.40;;
4278;SDS011;2153;47.744;10.580;2024-03-02T13:10:03;17.00;;;5.03;;
4278;SDS011;2153;47.744;10.580;2024-03-02T13:12:31;16.23;;;4.37;;
4278;SDS011;2153;47.744;10.580;2024-03-02T13:14:59;15.93;;;3.70;;
4278;SDS011;2153;47.744;10.580;2024-03-02T13:17:27;14.93;;;3.60;;
4278;SDS011;2153;47.744;10.580;2024-03-02T13:19:55;18.07;;;3.40;;
4278;SDS011;2153;47.744;10.580;2024-03-02T13:22:22;13.73;;;3.10;;
4278;SDS011;2153;47.744;10.580;2024-03-02T13:24:49;12.90;;;2.40;;
4278;SDS011;2153;47.744;10.580;2024-03-02T13:27:16;13.20;;;2.93;;
4278;SDS011;2153;47.744;10.580;2024-03-02T13:29:44;13.33;;;2.67;;
4278;SDS011;2153;47.744;10.580;2024-03-02T13:32:13;13.10;;;2.47;;
4278;SDS011;2153;47.744;10.580;2024-03-02T13:34:40;13.97;;;3.00;;
4278;SDS011;2153;47.744;10.580;2024-03-02T13:37:08;14.47;;;3.67;;
4278;SDS011;2153;47.744;10.580;2024-03-02T13:39:35;14.77;;;3.37;;
4278;SDS011;2153;47.744;10.580;2024-03-02T13:42:06;14.40;;;2.70;;
4278;SDS011;2153;47.744;10.580;2024-03-02T13:44:33;13.10;;;2.70;;
4278;SDS011;2153;47.744;10.580;2024-03-02T13:47:00;12.93;;;2.50;;
4278;SDS011;2153;47.744;10.580;2024-03-02T13:49:29;14.33;;;3.00;;
4278;SDS011;2153;47.744;10.580;2024-03-02T13:52:00;12.20;;;2.43;;
4278;SDS011;2153;47.744;10.580;2024-03-02T13:54:29;14.17;;;2.70;;
4278;SDS011;2153;47.744;10.580;2024-03-02T13:56:56;15.80;;;5.40;;
4278;SDS011;2153;47.744;10.580;2024-03-02T13:59:23;14.03;;;2.83;;
4278;SDS011;2153;47.744;10.580;2024-03-02T14:01:50;14.60;;;2.40;;
4278;SDS011;2153;47.744;10.580;2024-03-02T14:04:18;18.73;;;2.83;;
4278;SDS011;2153;47.744;10.580;2024-03-02T14:06:46;14.30;;;2.67;;
4278;SDS011;2153;47.744;10.580;2024-03-02T14:09:13;12.53;;;2.57;;
4278;SDS011;2153;47.744;10.580;2024-03-02T14:11:40;14.60;;;2.70;;
4278;SDS011;2153;47.744;10.580;2024-03-02T14:14:07;13.47;;;2.70;;
4278;SDS011;2153;47.744;10.580;2024-03-02T14:16:34;13.23;;;2.87;;
4278;SDS011;2153;47.744;10.580;2024-03-02T14:19:01;24.27;;;2.93;;
4278;SDS011;2153;47.744;10.580;2024-03-02T14:21:30;14.47;;;2.97;;
4278;SDS011;2153;47.744;10.580;2024-03-02T14:23:58;13.50;;;2.93;;
4278;SDS011;2153;47.744;10.580;2024-03-02T14:26:25;15.17;;;3.60;;
4278;SDS011;2153;47.744;10.580;2024-03-02T14:28:53;14.00;;;3.30;;
4278;SDS011;2153;47.744;10.580;2024-03-02T14:31:20;13.33;;;3.03;;
4278;SDS011;2153;47.744;10.580;2024-03-02T14:33:47;12.90;;;2.80;;
4278;SDS011;2153;47.744;10.580;2024-03-02T14:36:14;15.40;;;3.30;;
4278;SDS011;2153;47.744;10.580;2024-03-02T14:38:41;13.70;;;3.40;;
4278;SDS011;2153;47.744;10.580;2024-03-02T14:41:09;13.50;;;3.03;;
4278;SDS011;2153;47.744;10.580;2024-03-02T14:43:37;14.37;;;3.10;;
4278;SDS011;2153;47.744;10.580;2024-03-02T14:46:04;13.70;;;3.30;;
4278;SDS011;2153;47.744;10.580;2024-03-02T14:48:31;13.67;;;2.87;;
4278;SDS011;2153;47.744;10.580;2024-03-02T14:50:58;13.03;;;2.87;;